sensor_id;sensor_type;location;lat;lon;timestamp;P1;durP1;ratioP1;P2;durP2;ratioP2
4980;SDS011;2507;50.392;7.482;2023-08-17T00:01:00;10.57;;;7.43;;
4980;SDS011;2507;50.392;7.482;2023-08-17T00:03:25;8.27;;;7.20;;
4980;SDS011;2507;50.392;7.482;2023-08-17T00:05:51;8.63;;;6.20;;
4980;SDS011;2507;50.392;7.482;2023-08-17T00:08:16;5.53;;;5.13;;
4980;SDS011;2507;50.392;7.482;2023-08-17T00:10:42;5.07;;;4.67;;
4980;SDS011;2507;50.392;7.482;2023-08-17T00:13:07;6.40;;;4.33;;
4980;SDS011;2507;50.392;7.482;2023-08-17T00:15:33;9.03;;;4.93;;
4980;SDS011;2507;50.392;7.482;2023-08-17T00:17:58;4.87;;;4.47;;
4980;SDS011;2507;50.392;7.482;2023-08-17T00:20:23;9.23;;;6.53;;
4980;SDS011;2507;50.392;7.482;2023-08-17T00:22:48;5.73;;;5.27;;
4980;SDS011;2507;50.392;7.482;2023-08-17T00:25:14;6.73;;;6.03;;
4980;SDS011;2507;50.392;7.482;2023-08-17T00:27:39;7.50;;;5.30;;
4980;SDS011;2507;50.392;7.482;2023-08-17T00:30:05;6.70;;;5.50;;
4980;SDS011;2507;50.392;7.482;2023-08-17T00:32:30;5.40;;;4.90;;
4980;SDS011;2507;50.392;7.482;2023-08-17T00:34:56;7.33;;;5.00;;
4980;SDS011;2507;50.392;7.482;2023-08-17T00:37:21;7.27;;;5.00;;
4980;SDS011;2507;50.392;7.482;2023-08-17T00:39:46;5.77;;;5.20;;
4980;SDS011;2507;50.392;7.482;2023-08-17T00:42:11;7.53;;;4.60;;
4980;SDS011;2507;50.392;7.482;2023-08-17T00:44:37;7.07;;;4.70;;
4980;SDS011;2507;50.392;7.482;2023-08-17T00:47:02;5.60;;;5.10;;
4980;SDS011;2507;50.392;7.482;2023-08-17T00:49:29;5.27;;;4.97;;
4980;SDS011;2507;50.392;7.482;2023-08-17T00:51:55;5.83;;;5.33;;
4980;SDS011;2507;50.392;7.482;2023-08-17T00:54:23;5.40;;;4.40;;
4980;SDS011;2507;50.392;7.482;2023-08-17T00:56:50;5.87;;;5.17;;
4980;SDS011;2507;50.392;7.482;2023-08-17T00:59:17;5.73;;;5.20;;
4980;SDS011;2507;50.392;7.482;2023-08-17T01:01:42;5.77;;;5.27;;
4980;SDS011;2507;50.392;7.482;2023-08-17T01:04:08;5.30;;;4.90;;
4980;SDS011;2507;50.392;7.482;2023-08-17T01:06:33;6.90;;;4.60;;
4980;SDS011;2507;50.392;7.482;2023-08-17T01:08:58;6.07;;;4.50;;
4980;SDS011;2507;50.392;7.482;2023-08-17T01:13:51;7.63;;;4.90;;
4980;SDS011;2507;50.392;7.482;2023-08-17T01:16:29;6.50;;;5.90;;
4980;SDS011;2507;50.392;7.482;2023-08-17T01:18:58;6.37;;;5.77;;
4980;SDS011;2507;50.392;7.482;2023-08-17T01:21:29;7.07;;;6.37;;
4980;SDS011;2507;50.392;7.482;2023-08-17T01:24:02;7.40;;;6.50;;
4980;SDS011;2507;50.392;7.482;2023-08-17T01:26:28;8.03;;;6.33;;
4980;SDS011;2507;50.392;7.482;2023-08-17T01:28:53;11.53;;;7.33;;
4980;SDS011;2507;50.392;7.482;2023-08-17T01:31:20;7.80;;;7.10;;
4980;SDS011;2507;50.392;7.482;2023-08-17T01:33:50;8.53;;;6.97;;
4980;SDS011;2507;50.392;7.482;2023-08-17T01:36:25;8.23;;;7.13;;
4980;SDS011;2507;50.392;7.482;2023-08-17T01:38:54;7.30;;;6.67;;
4980;SDS011;2507;50.392;7.482;2023-08-17T01:41:22;10.13;;;7.20;;
4980;SDS011;2507;50.392;7.482;2023-08-17T01:43:48;10.40;;;7.20;;
4980;SDS011;2507;50.392;7.482;2023-08-17T01:46:15;8.73;;;6.83;;
4980;SDS011;2507;50.392;7.482;2023-08-17T01:48:41;7.63;;;6.40;;
4980;SDS011;2507;50.392;7.482;2023-08-17T01:51:07;8.27;;;7.33;;
4980;SDS011;2507;50.392;7.482;2023-08-17T01:53:33;8.43;;;6.90;;
4980;SDS011;2507;50.392;7.482;2023-08-17T01:55:58;8.10;;;6.20;;
4980;SDS011;2507;50.392;7.482;2023-08-17T01:58:24;7.43;;;6.70;;
4980;SDS011;2507;50.392;7.482;2023-08-17T02:00:49;8.40;;;7.60;;
4980;SDS011;2507;50.392;7.482;2023-08-17T02:03:14;8.37;;;7.13;;
4980;SDS011;2507;50.392;7.482;2023-08-17T02:05:43;7.80;;;6.17;;
4980;SDS011;2507;50.392;7.482;2023-08-17T02:08:12;9.20;;;7.27;;
4980;SDS011;2507;50.392;7.482;2023-08-17T02:10:37;9.97;;;8.50;;
4980;SDS011;2507;50.392;7.482;2023-08-17T02:13:03;8.10;;;7.40;;
4980;SDS011;2507;50.392;7.482;2023-08-17T02:15:28;11.40;;;8.10;;
4980;SDS011;2507;50.392;7.482;2023-08-17T02:17:54;8.30;;;7.50;;
4980;SDS011;2507;50.392;7.482;2023-08-17T02:20:19;8.33;;;7.30;;
4980;SDS011;2507;50.392;7.482;2023-08-17T02:22:44;15.53;;;10.50;;
4980;SDS011;2507;50.392;7.482;2023-08-17T02:25:09;15.17;;;9.67;;
4980;SDS011;2507;50.392;7.482;2023-08-17T02:27:35;11.07;;;8.80;;
4980;SDS011;2507;50.392;7.482;2023-08-17T02:30:00;13.20;;;7.63;;
4980;SDS011;2507;50.392;7.482;2023-08-17T02:32:25;8.07;;;7.37;;
4980;SDS011;2507;50.392;7.482;2023-08-17T02:34:51;12.60;;;7.53;;
4980;SDS011;2507;50.392;7.482;2023-08-17T02:37:16;7.80;;;7.00;;
4980;SDS011;2507;50.392;7.482;2023-08-17T02:39:41;8.90;;;8.03;;
4980;SDS011;2507;50.392;7.482;2023-08-17T02:42:06;10.57;;;8.00;;
4980;SDS011;2507;50.392;7.482;2023-08-17T02:44:32;12.07;;;8.93;;
4980;SDS011;2507;50.392;7.482;2023-08-17T02:46:57;11.17;;;8.73;;
4980;SDS011;2507;50.392;7.482;2023-08-17T02:49:22;8.67;;;7.80;;
4980;SDS011;2507;50.392;7.482;2023-08-17T02:51:47;8.97;;;7.97;;
4980;SDS011;2507;50.392;7.482;2023-08-17T02:54:13;12.13;;;9.30;;
4980;SDS011;2507;50.392;7.482;2023-08-17T02:56:38;11.07;;;8.17;;
4980;SDS011;2507;50.392;7.482;2023-08-17T02:59:03;8.80;;;7.37;;
4980;SDS011;2507;50.392;7.482;2023-08-17T03:01:29;7.73;;;7.07;;
4980;SDS011;2507;50.392;7.482;2023-08-17T03:03:56;8.50;;;7.30;;
4980;SDS011;2507;50.392;7.482;2023-08-17T03:06:21;8.57;;;7.70;;
4980;SDS011;2507;50.392;7.482;2023-08-17T03:08:46;10.20;;;8.00;;
4980;SDS011;2507;50.392;7.482;2023-08-17T03:11:12;7.63;;;6.83;;
4980;SDS011;2507;50.392;7.482;2023-08-17T03:13:37;7.87;;;6.73;;
4980;SDS011;2507;50.392;7.482;2023-08-17T03:16:02;7.33;;;6.63;;
4980;SDS011;2507;50.392;7.482;2023-08-17T03:18:28;8.10;;;7.20;;
4980;SDS011;2507;50.392;7.482;2023-08-17T03:20:53;7.50;;;6.90;;
4980;SDS011;2507;50.392;7.482;2023-08-17T03:23:18;9.30;;;7.83;;
4980;SDS011;2507;50.392;7.482;2023-08-17T03:25:43;9.23;;;7.03;;
4980;SDS011;2507;50.392;7.482;2023-08-17T03:28:10;12.80;;;7.33;;
4980;SDS011;2507;50.392;7.482;2023-08-17T03:30:35;9.50;;;7.20;;
4980;SDS011;2507;50.392;7.482;2023-08-17T03:33:01;8.70;;;7.80;;
4980;SDS011;2507;50.392;7.482;2023-08-17T03:35:26;9.03;;;7.43;;
4980;SDS011;2507;50.392;7.482;2023-08-17T03:37:51;8.20;;;7.30;;
4980;SDS011;2507;50.392;7.482;2023-08-17T03:40:17;9.97;;;7.13;;
4980;SDS011;2507;50.392;7.482;2023-08-17T03:42:42;8.67;;;6.97;;
4980;SDS011;2507;50.392;7.482;2023-08-17T03:45:08;10.33;;;8.80;;
4980;SDS011;2507;50.392;7.482;2023-08-17T03:47:33;8.93;;;6.43;;
4980;SDS011;2507;50.392;7.482;2023-08-17T03:49:58;10.03;;;7.17;;
4980;SDS011;2507;50.392;7.482;2023-08-17T03:52:24;7.63;;;6.90;;
4980;SDS011;2507;50.392;7.482;2023-08-17T03:54:49;10.23;;;6.60;;
4980;SDS011;2507;50.392;7.482;2023-08-17T03:57:14;6.63;;;6.00;;
4980;SDS011;2507;50.392;7.482;2023-08-17T03:59:40;9.23;;;7.20;;
4980;SDS011;2507;50.392;7.482;2023-08-17T04:02:06;7.63;;;6.20;;
4980;SDS011;2507;50.392;7.482;2023-08-17T04:04:31;8.83;;;6.50;;
4980;SDS011;2507;50.392;7.482;2023-08-17T04:06:57;8.53;;;7.40;;
4980;SDS011;2507;50.392;7.482;2023-08-17T04:09:22;7.50;;;5.90;;
4980;SDS011;2507;50.392;7.482;2023-08-17T04:11:47;10.23;;;6.37;;
4980;SDS011;2507;50.392;7.482;2023-08-17T04:14:13;12.00;;;7.20;;
4980;SDS011;2507;50.392;7.482;2023-08-17T04:16:39;16.13;;;6.57;;
4980;SDS011;2507;50.392;7.482;2023-08-17T04:19:04;8.30;;;7.50;;
4980;SDS011;2507;50.392;7.482;2023-08-17T04:21:29;19.97;;;9.57;;
4980;SDS011;2507;50.392;7.482;2023-08-17T04:23:55;9.80;;;8.80;;
4980;SDS011;2507;50.392;7.482;2023-08-17T04:26:20;13.53;;;10.73;;
4980;SDS011;2507;50.392;7.482;2023-08-17T04:28:46;12.97;;;6.90;;
4980;SDS011;2507;50.392;7.482;2023-08-17T04:31:11;9.50;;;7.87;;
4980;SDS011;2507;50.392;7.482;2023-08-17T04:33:36;13.40;;;7.73;;
4980;SDS011;2507;50.392;7.482;2023-08-17T04:36:02;8.73;;;7.10;;
4980;SDS011;2507;50.392;7.482;2023-08-17T04:38:27;7.70;;;6.90;;
4980;SDS011;2507;50.392;7.482;2023-08-17T04:40:52;9.97;;;6.77;;
4980;SDS011;2507;50.392;7.482;2023-08-17T04:43:18;13.13;;;7.87;;
4980;SDS011;2507;50.392;7.482;2023-08-17T04:45:43;17.60;;;8.10;;
4980;SDS011;2507;50.392;7.482;2023-08-17T04:48:12;13.60;;;8.73;;
4980;SDS011;2507;50.392;7.482;2023-08-17T04:50:38;20.90;;;10.67;;
4980;SDS011;2507;50.392;7.482;2023-08-17T04:53:03;18.07;;;11.90;;
4980;SDS011;2507;50.392;7.482;2023-08-17T04:55:28;15.30;;;11.00;;
4980;SDS011;2507;50.392;7.482;2023-08-17T04:57:54;11.60;;;10.40;;
4980;SDS011;2507;50.392;7.482;2023-08-17T05:00:19;10.00;;;8.80;;
4980;SDS011;2507;50.392;7.482;2023-08-17T05:02:50;10.60;;;8.30;;
4980;SDS011;2507;50.392;7.482;2023-08-17T05:05:15;15.90;;;8.07;;
4980;SDS011;2507;50.392;7.482;2023-08-17T05:07:41;9.40;;;7.73;;
4980;SDS011;2507;50.392;7.482;2023-08-17T05:10:06;13.83;;;8.33;;
4980;SDS011;2507;50.392;7.482;2023-08-17T05:12:31;11.67;;;7.07;;
4980;SDS011;2507;50.392;7.482;2023-08-17T05:14:57;11.70;;;7.77;;
4980;SDS011;2507;50.392;7.482;2023-08-17T05:17:22;10.77;;;8.10;;
4980;SDS011;2507;50.392;7.482;2023-08-17T05:19:48;10.17;;;7.73;;
4980;SDS011;2507;50.392;7.482;2023-08-17T05:22:13;11.10;;;8.17;;
4980;SDS011;2507;50.392;7.482;2023-08-17T05:24:39;7.87;;;6.80;;
4980;SDS011;2507;50.392;7.482;2023-08-17T05:27:04;10.00;;;7.60;;
4980;SDS011;2507;50.392;7.482;2023-08-17T05:29:30;7.57;;;6.83;;
4980;SDS011;2507;50.392;7.482;2023-08-17T05:31:57;10.30;;;7.07;;
4980;SDS011;2507;50.392;7.482;2023-08-17T05:34:22;11.73;;;7.10;;
4980;SDS011;2507;50.392;7.482;2023-08-17T05:36:48;8.80;;;7.53;;
4980;SDS011;2507;50.392;7.482;2023-08-17T05:39:13;12.03;;;7.20;;
4980;SDS011;2507;50.392;7.482;2023-08-17T05:41:38;7.50;;;6.67;;
4980;SDS011;2507;50.392;7.482;2023-08-17T05:44:04;8.60;;;7.40;;
4980;SDS011;2507;50.392;7.482;2023-08-17T05:46:31;6.57;;;5.97;;
4980;SDS011;2507;50.392;7.482;2023-08-17T05:48:57;6.20;;;5.60;;
4980;SDS011;2507;50.392;7.482;2023-08-17T05:51:23;6.43;;;5.10;;
4980;SDS011;2507;50.392;7.482;2023-08-17T05:53:48;4.63;;;4.23;;
4980;SDS011;2507;50.392;7.482;2023-08-17T05:56:14;6.47;;;4.53;;
4980;SDS011;2507;50.392;7.482;2023-08-17T05:58:39;8.70;;;5.10;;
4980;SDS011;2507;50.392;7.482;2023-08-17T06:01:07;6.00;;;5.10;;
4980;SDS011;2507;50.392;7.482;2023-08-17T06:03:34;5.97;;;4.93;;
4980;SDS011;2507;50.392;7.482;2023-08-17T06:05:59;5.83;;;5.33;;
4980;SDS011;2507;50.392;7.482;2023-08-17T06:08:25;5.43;;;5.03;;
4980;SDS011;2507;50.392;7.482;2023-08-17T06:10:50;11.67;;;5.70;;
4980;SDS011;2507;50.392;7.482;2023-08-17T06:13:15;8.17;;;5.93;;
4980;SDS011;2507;50.392;7.482;2023-08-17T06:15:41;6.90;;;6.30;;
4980;SDS011;2507;50.392;7.482;2023-08-17T06:18:06;6.70;;;6.20;;
4980;SDS011;2507;50.392;7.482;2023-08-17T06:20:31;7.57;;;6.30;;
4980;SDS011;2507;50.392;7.482;2023-08-17T06:22:57;8.90;;;6.30;;
4980;SDS011;2507;50.392;7.482;2023-08-17T06:25:22;7.73;;;6.40;;
4980;SDS011;2507;50.392;7.482;2023-08-17T06:27:48;9.73;;;7.00;;
4980;SDS011;2507;50.392;7.482;2023-08-17T06:30:14;9.63;;;6.90;;
4980;SDS011;2507;50.392;7.482;2023-08-17T06:32:40;9.87;;;7.00;;
4980;SDS011;2507;50.392;7.482;2023-08-17T06:35:06;9.83;;;7.20;;
4980;SDS011;2507;50.392;7.482;2023-08-17T06:37:31;8.00;;;7.07;;
4980;SDS011;2507;50.392;7.482;2023-08-17T06:39:57;8.37;;;7.00;;
4980;SDS011;2507;50.392;7.482;2023-08-17T06:42:22;12.43;;;7.07;;
4980;SDS011;2507;50.392;7.482;2023-08-17T06:44:47;8.37;;;7.53;;
4980;SDS011;2507;50.392;7.482;2023-08-17T06:47:13;9.90;;;8.00;;
4980;SDS011;2507;50.392;7.482;2023-08-17T06:49:38;8.37;;;7.57;;
4980;SDS011;2507;50.392;7.482;2023-08-17T06:52:03;7.47;;;6.67;;
4980;SDS011;2507;50.392;7.482;2023-08-17T06:54:29;6.70;;;6.10;;
4980;SDS011;2507;50.392;7.482;2023-08-17T06:56:54;8.83;;;5.67;;
4980;SDS011;2507;50.392;7.482;2023-08-17T06:59:19;6.03;;;5.47;;
4980;SDS011;2507;50.392;7.482;2023-08-17T07:01:45;6.63;;;5.87;;
4980;SDS011;2507;50.392;7.482;2023-08-17T07:04:10;7.00;;;5.13;;
4980;SDS011;2507;50.392;7.482;2023-08-17T07:06:36;5.40;;;4.93;;
4980;SDS011;2507;50.392;7.482;2023-08-17T07:09:02;5.03;;;4.63;;
4980;SDS011;2507;50.392;7.482;2023-08-17T07:11:29;6.30;;;5.70;;
4980;SDS011;2507;50.392;7.482;2023-08-17T07:13:55;7.60;;;6.27;;
4980;SDS011;2507;50.392;7.482;2023-08-17T07:16:20;7.07;;;6.40;;
4980;SDS011;2507;50.392;7.482;2023-08-17T07:18:45;6.40;;;5.90;;
4980;SDS011;2507;50.392;7.482;2023-08-17T07:21:11;12.70;;;6.37;;
4980;SDS011;2507;50.392;7.482;2023-08-17T07:23:36;10.17;;;5.83;;
4980;SDS011;2507;50.392;7.482;2023-08-17T07:26:01;10.03;;;6.20;;
4980;SDS011;2507;50.392;7.482;2023-08-17T07:28:27;6.10;;;5.60;;
4980;SDS011;2507;50.392;7.482;2023-08-17T07:30:52;7.03;;;5.40;;
4980;SDS011;2507;50.392;7.482;2023-08-17T07:33:18;7.07;;;6.43;;
4980;SDS011;2507;50.392;7.482;2023-08-17T07:35:43;6.63;;;5.57;;
4980;SDS011;2507;50.392;7.482;2023-08-17T07:38:08;6.00;;;5.40;;
4980;SDS011;2507;50.392;7.482;2023-08-17T07:40:33;7.70;;;6.30;;
4980;SDS011;2507;50.392;7.482;2023-08-17T07:42:59;5.43;;;4.90;;
4980;SDS011;2507;50.392;7.482;2023-08-17T07:45:24;7.33;;;5.00;;
4980;SDS011;2507;50.392;7.482;2023-08-17T07:47:49;4.63;;;4.20;;
4980;SDS011;2507;50.392;7.482;2023-08-17T07:50:15;4.23;;;3.93;;
4980;SDS011;2507;50.392;7.482;2023-08-17T07:52:41;10.33;;;4.33;;
4980;SDS011;2507;50.392;7.482;2023-08-17T07:55:07;4.90;;;4.60;;
4980;SDS011;2507;50.392;7.482;2023-08-17T07:57:32;3.70;;;3.40;;
4980;SDS011;2507;50.392;7.482;2023-08-17T07:59:57;4.10;;;3.23;;
4980;SDS011;2507;50.392;7.482;2023-08-17T08:02:22;3.07;;;2.87;;
4980;SDS011;2507;50.392;7.482;2023-08-17T08:04:48;4.33;;;3.07;;
4980;SDS011;2507;50.392;7.482;2023-08-17T08:07:13;3.20;;;3.00;;
4980;SDS011;2507;50.392;7.482;2023-08-17T08:09:38;6.60;;;3.70;;
4980;SDS011;2507;50.392;7.482;2023-08-17T08:12:04;3.07;;;2.87;;
4980;SDS011;2507;50.392;7.482;2023-08-17T08:14:30;2.80;;;2.60;;
4980;SDS011;2507;50.392;7.482;2023-08-17T08:16:55;3.67;;;3.47;;
4980;SDS011;2507;50.392;7.482;2023-08-17T08:19:20;3.80;;;3.50;;
4980;SDS011;2507;50.392;7.482;2023-08-17T08:21:46;3.20;;;3.00;;
4980;SDS011;2507;50.392;7.482;2023-08-17T08:24:11;2.73;;;2.60;;
4980;SDS011;2507;50.392;7.482;2023-08-17T08:26:36;3.80;;;3.47;;
4980;SDS011;2507;50.392;7.482;2023-08-17T08:29:01;3.30;;;3.00;;
4980;SDS011;2507;50.392;7.482;2023-08-17T08:31:27;3.17;;;2.97;;
4980;SDS011;2507;50.392;7.482;2023-08-17T08:33:52;3.60;;;3.30;;
4980;SDS011;2507;50.392;7.482;2023-08-17T08:36:18;4.20;;;3.90;;
4980;SDS011;2507;50.392;7.482;2023-08-17T08:38:43;2.93;;;2.73;;
4980;SDS011;2507;50.392;7.482;2023-08-17T08:41:08;2.90;;;2.67;;
4980;SDS011;2507;50.392;7.482;2023-08-17T08:43:36;3.97;;;3.67;;
4980;SDS011;2507;50.392;7.482;2023-08-17T08:46:02;3.20;;;3.00;;
4980;SDS011;2507;50.392;7.482;2023-08-17T08:48:27;5.40;;;3.63;;
4980;SDS011;2507;50.392;7.482;2023-08-17T08:50:54;3.07;;;2.77;;
4980;SDS011;2507;50.392;7.482;2023-08-17T08:53:23;3.20;;;2.90;;
4980;SDS011;2507;50.392;7.482;2023-08-17T08:55:58;4.40;;;2.60;;
4980;SDS011;2507;50.392;7.482;2023-08-17T08:58:25;3.10;;;2.90;;
4980;SDS011;2507;50.392;7.482;2023-08-17T09:00:51;3.17;;;2.97;;
4980;SDS011;2507;50.392;7.482;2023-08-17T09:03:17;3.40;;;2.33;;
4980;SDS011;2507;50.392;7.482;2023-08-17T09:05:46;2.30;;;1.90;;
4980;SDS011;2507;50.392;7.482;2023-08-17T09:08:13;2.97;;;2.77;;
4980;SDS011;2507;50.392;7.482;2023-08-17T09:10:40;2.27;;;2.17;;
4980;SDS011;2507;50.392;7.482;2023-08-17T09:13:06;2.27;;;2.17;;
4980;SDS011;2507;50.392;7.482;2023-08-17T09:15:31;2.80;;;2.60;;
4980;SDS011;2507;50.392;7.482;2023-08-17T09:17:56;2.20;;;2.10;;
4980;SDS011;2507;50.392;7.482;2023-08-17T09:23:04;2.93;;;2.57;;
4980;SDS011;2507;50.392;7.482;2023-08-17T09:25:36;2.80;;;2.70;;
4980;SDS011;2507;50.392;7.482;2023-08-17T09:28:10;2.60;;;2.50;;
4980;SDS011;2507;50.392;7.482;2023-08-17T09:30:48;3.03;;;2.83;;
4980;SDS011;2507;50.392;7.482;2023-08-17T09:33:15;2.40;;;2.30;;
4980;SDS011;2507;50.392;7.482;2023-08-17T09:35:41;3.43;;;3.20;;
4980;SDS011;2507;50.392;7.482;2023-08-17T09:38:07;3.20;;;3.00;;
4980;SDS011;2507;50.392;7.482;2023-08-17T09:40:32;3.97;;;3.70;;
4980;SDS011;2507;50.392;7.482;2023-08-17T09:42:57;4.10;;;3.30;;
4980;SDS011;2507;50.392;7.482;2023-08-17T09:45:23;2.70;;;2.60;;
4980;SDS011;2507;50.392;7.482;2023-08-17T09:47:49;2.80;;;2.33;;
4980;SDS011;2507;50.392;7.482;2023-08-17T09:50:14;2.90;;;2.80;;
4980;SDS011;2507;50.392;7.482;2023-08-17T09:52:39;3.37;;;3.07;;
4980;SDS011;2507;50.392;7.482;2023-08-17T09:55:06;3.33;;;3.10;;
4980;SDS011;2507;50.392;7.482;2023-08-17T09:57:32;3.30;;;2.77;;
4980;SDS011;2507;50.392;7.482;2023-08-17T09:59:58;4.03;;;3.33;;
4980;SDS011;2507;50.392;7.482;2023-08-17T10:02:23;2.90;;;2.70;;
4980;SDS011;2507;50.392;7.482;2023-08-17T10:04:50;3.00;;;2.90;;
4980;SDS011;2507;50.392;7.482;2023-08-17T10:07:20;3.33;;;3.03;;
4980;SDS011;2507;50.392;7.482;2023-08-17T10:12:53;3.60;;;3.33;;
4980;SDS011;2507;50.392;7.482;2023-08-17T10:15:29;3.10;;;3.00;;
4980;SDS011;2507;50.392;7.482;2023-08-17T10:17:58;3.60;;;3.30;;
4980;SDS011;2507;50.392;7.482;2023-08-17T10:20:31;3.50;;;3.30;;
4980;SDS011;2507;50.392;7.482;2023-08-17T10:23:06;3.47;;;3.23;;
4980;SDS011;2507;50.392;7.482;2023-08-17T10:25:36;3.33;;;3.13;;
4980;SDS011;2507;50.392;7.482;2023-08-17T10:28:03;3.50;;;3.30;;
4980;SDS011;2507;50.392;7.482;2023-08-17T10:30:29;3.10;;;2.90;;
4980;SDS011;2507;50.392;7.482;2023-08-17T10:32:55;2.93;;;2.83;;
4980;SDS011;2507;50.392;7.482;2023-08-17T10:35:21;3.57;;;3.03;;
4980;SDS011;2507;50.392;7.482;2023-08-17T10:37:47;3.57;;;3.00;;
4980;SDS011;2507;50.392;7.482;2023-08-17T10:40:13;3.00;;;2.90;;
4980;SDS011;2507;50.392;7.482;2023-08-17T10:42:38;3.77;;;3.47;;
4980;SDS011;2507;50.392;7.482;2023-08-17T10:47:51;2.70;;;2.60;;
4980;SDS011;2507;50.392;7.482;2023-08-17T10:50:44;2.93;;;2.83;;
4980;SDS011;2507;50.392;7.482;2023-08-17T10:53:24;2.70;;;2.60;;
4980;SDS011;2507;50.392;7.482;2023-08-17T10:55:49;2.87;;;2.63;;
4980;SDS011;2507;50.392;7.482;2023-08-17T10:58:16;3.27;;;2.97;;
4980;SDS011;2507;50.392;7.482;2023-08-17T11:00:41;3.30;;;2.40;;
4980;SDS011;2507;50.392;7.482;2023-08-17T11:03:09;2.90;;;2.70;;
4980;SDS011;2507;50.392;7.482;2023-08-17T11:08:32;2.77;;;2.67;;
4980;SDS011;2507;50.392;7.482;2023-08-17T11:13:38;2.80;;;2.60;;
4980;SDS011;2507;50.392;7.482;2023-08-17T11:16:09;2.20;;;2.10;;
4980;SDS011;2507;50.392;7.482;2023-08-17T11:18:36;2.70;;;2.60;;
4980;SDS011;2507;50.392;7.482;2023-08-17T11:21:02;2.67;;;2.57;;
4980;SDS011;2507;50.392;7.482;2023-08-17T11:23:29;3.50;;;2.27;;
4980;SDS011;2507;50.392;7.482;2023-08-17T11:25:55;2.57;;;2.37;;
4980;SDS011;2507;50.392;7.482;2023-08-17T11:28:21;4.67;;;2.80;;
4980;SDS011;2507;50.392;7.482;2023-08-17T11:30:56;2.10;;;2.00;;
4980;SDS011;2507;50.392;7.482;2023-08-17T11:33:23;2.50;;;2.30;;
4980;SDS011;2507;50.392;7.482;2023-08-17T11:35:50;2.77;;;2.67;;
4980;SDS011;2507;50.392;7.482;2023-08-17T11:38:15;2.77;;;2.57;;
4980;SDS011;2507;50.392;7.482;2023-08-17T11:40:41;2.37;;;2.27;;
4980;SDS011;2507;50.392;7.482;2023-08-17T11:43:06;2.60;;;2.50;;
4980;SDS011;2507;50.392;7.482;2023-08-17T11:45:31;3.03;;;2.30;;
4980;SDS011;2507;50.392;7.482;2023-08-17T11:47:57;2.43;;;2.20;;
4980;SDS011;2507;50.392;7.482;2023-08-17T11:50:24;2.93;;;2.23;;
4980;SDS011;2507;50.392;7.482;2023-08-17T11:52:49;2.77;;;2.57;;
4980;SDS011;2507;50.392;7.482;2023-08-17T11:55:15;2.30;;;2.20;;
4980;SDS011;2507;50.392;7.482;2023-08-17T11:57:42;4.60;;;2.57;;
4980;SDS011;2507;50.392;7.482;2023-08-17T12:00:08;2.30;;;2.20;;
4980;SDS011;2507;50.392;7.482;2023-08-17T12:02:35;2.43;;;2.20;;
4980;SDS011;2507;50.392;7.482;2023-08-17T12:05:02;2.00;;;1.90;;
4980;SDS011;2507;50.392;7.482;2023-08-17T12:07:31;2.40;;;2.20;;
4980;SDS011;2507;50.392;7.482;2023-08-17T12:09:57;2.43;;;2.30;;
4980;SDS011;2507;50.392;7.482;2023-08-17T12:12:22;2.20;;;2.10;;
4980;SDS011;2507;50.392;7.482;2023-08-17T12:14:47;2.40;;;2.20;;
4980;SDS011;2507;50.392;7.482;2023-08-17T12:17:16;2.30;;;2.00;;
4980;SDS011;2507;50.392;7.482;2023-08-17T12:19:43;4.13;;;2.27;;
4980;SDS011;2507;50.392;7.482;2023-08-17T12:22:10;2.70;;;2.50;;
4980;SDS011;2507;50.392;7.482;2023-08-17T12:24:37;3.47;;;2.30;;
4980;SDS011;2507;50.392;7.482;2023-08-17T12:27:03;2.87;;;2.67;;
4980;SDS011;2507;50.392;7.482;2023-08-17T12:29:30;3.13;;;2.40;;
4980;SDS011;2507;50.392;7.482;2023-08-17T12:31:58;2.30;;;2.20;;
4980;SDS011;2507;50.392;7.482;2023-08-17T12:34:26;2.57;;;2.37;;
4980;SDS011;2507;50.392;7.482;2023-08-17T12:36:51;2.67;;;2.53;;
4980;SDS011;2507;50.392;7.482;2023-08-17T12:39:16;3.33;;;2.57;;
4980;SDS011;2507;50.392;7.482;2023-08-17T12:41:42;2.20;;;2.10;;
4980;SDS011;2507;50.392;7.482;2023-08-17T12:44:08;2.80;;;2.70;;
4980;SDS011;2507;50.392;7.482;2023-08-17T12:46:34;2.73;;;2.63;;
4980;SDS011;2507;50.392;7.482;2023-08-17T12:49:00;4.17;;;3.77;;
4980;SDS011;2507;50.392;7.482;2023-08-17T12:51:25;3.90;;;2.70;;
4980;SDS011;2507;50.392;7.482;2023-08-17T12:53:50;2.50;;;2.30;;
4980;SDS011;2507;50.392;7.482;2023-08-17T12:56:15;2.97;;;2.87;;
4980;SDS011;2507;50.392;7.482;2023-08-17T12:58:41;3.30;;;3.10;;
4980;SDS011;2507;50.392;7.482;2023-08-17T13:01:06;2.97;;;2.77;;
4980;SDS011;2507;50.392;7.482;2023-08-17T13:03:31;2.47;;;2.30;;
4980;SDS011;2507;50.392;7.482;2023-08-17T13:05:56;2.70;;;2.50;;
4980;SDS011;2507;50.392;7.482;2023-08-17T13:08:22;2.40;;;2.30;;
4980;SDS011;2507;50.392;7.482;2023-08-17T13:10:47;2.90;;;2.40;;
4980;SDS011;2507;50.392;7.482;2023-08-17T13:13:12;3.37;;;2.53;;
4980;SDS011;2507;50.392;7.482;2023-08-17T13:15:38;2.73;;;2.47;;
4980;SDS011;2507;50.392;7.482;2023-08-17T13:18:03;2.77;;;2.67;;
4980;SDS011;2507;50.392;7.482;2023-08-17T13:20:29;3.10;;;2.80;;
4980;SDS011;2507;50.392;7.482;2023-08-17T13:22:54;2.80;;;2.70;;
4980;SDS011;2507;50.392;7.482;2023-08-17T13:25:19;2.73;;;2.53;;
4980;SDS011;2507;50.392;7.482;2023-08-17T13:27:44;2.40;;;2.20;;
4980;SDS011;2507;50.392;7.482;2023-08-17T13:30:10;2.80;;;2.70;;
4980;SDS011;2507;50.392;7.482;2023-08-17T13:32:35;2.70;;;2.40;;
4980;SDS011;2507;50.392;7.482;2023-08-17T13:35:01;3.57;;;3.00;;
4980;SDS011;2507;50.392;7.482;2023-08-17T13:37:27;4.53;;;3.13;;
4980;SDS011;2507;50.392;7.482;2023-08-17T13:39:53;2.40;;;2.30;;
4980;SDS011;2507;50.392;7.482;2023-08-17T13:42:18;2.77;;;2.63;;
4980;SDS011;2507;50.392;7.482;2023-08-17T13:44:44;2.47;;;2.23;;
4980;SDS011;2507;50.392;7.482;2023-08-17T13:47:10;2.93;;;2.73;;
4980;SDS011;2507;50.392;7.482;2023-08-17T13:49:36;2.67;;;2.57;;
4980;SDS011;2507;50.392;7.482;2023-08-17T13:52:01;2.80;;;2.60;;
4980;SDS011;2507;50.392;7.482;2023-08-17T13:54:26;6.83;;;2.90;;
4980;SDS011;2507;50.392;7.482;2023-08-17T13:56:51;3.17;;;2.77;;
4980;SDS011;2507;50.392;7.482;2023-08-17T13:59:17;3.07;;;2.80;;
4980;SDS011;2507;50.392;7.482;2023-08-17T14:01:42;3.17;;;3.00;;
4980;SDS011;2507;50.392;7.482;2023-08-17T14:04:07;3.40;;;2.67;;
4980;SDS011;2507;50.392;7.482;2023-08-17T14:06:36;2.90;;;2.70;;
4980;SDS011;2507;50.392;7.482;2023-08-17T14:09:02;3.37;;;2.70;;
4980;SDS011;2507;50.392;7.482;2023-08-17T14:11:27;4.93;;;3.00;;
4980;SDS011;2507;50.392;7.482;2023-08-17T14:13:53;4.50;;;3.17;;
4980;SDS011;2507;50.392;7.482;2023-08-17T14:16:18;2.97;;;2.80;;
4980;SDS011;2507;50.392;7.482;2023-08-17T14:18:43;3.30;;;2.27;;
4980;SDS011;2507;50.392;7.482;2023-08-17T14:21:09;2.53;;;2.33;;
4980;SDS011;2507;50.392;7.482;2023-08-17T14:23:34;2.73;;;2.30;;
4980;SDS011;2507;50.392;7.482;2023-08-17T14:25:59;4.03;;;2.63;;
4980;SDS011;2507;50.392;7.482;2023-08-17T14:28:24;2.13;;;1.93;;
4980;SDS011;2507;50.392;7.482;2023-08-17T14:30:51;6.10;;;2.60;;
4980;SDS011;2507;50.392;7.482;2023-08-17T14:33:16;2.50;;;2.40;;
4980;SDS011;2507;50.392;7.482;2023-08-17T14:35:41;3.07;;;2.87;;
4980;SDS011;2507;50.392;7.482;2023-08-17T14:38:07;3.67;;;2.63;;
4980;SDS011;2507;50.392;7.482;2023-08-17T14:40:34;2.80;;;2.70;;
4980;SDS011;2507;50.392;7.482;2023-08-17T14:43:00;2.90;;;2.80;;
4980;SDS011;2507;50.392;7.482;2023-08-17T14:45:25;2.93;;;2.77;;
4980;SDS011;2507;50.392;7.482;2023-08-17T14:47:50;3.23;;;3.03;;
4980;SDS011;2507;50.392;7.482;2023-08-17T14:50:15;3.43;;;3.23;;
4980;SDS011;2507;50.392;7.482;2023-08-17T14:52:41;3.43;;;3.13;;
4980;SDS011;2507;50.392;7.482;2023-08-17T14:55:06;6.63;;;3.37;;
4980;SDS011;2507;50.392;7.482;2023-08-17T14:57:32;2.70;;;2.60;;
4980;SDS011;2507;50.392;7.482;2023-08-17T14:59:57;2.97;;;2.77;;
4980;SDS011;2507;50.392;7.482;2023-08-17T15:02:22;3.00;;;2.73;;
4980;SDS011;2507;50.392;7.482;2023-08-17T15:04:47;3.50;;;3.17;;
4980;SDS011;2507;50.392;7.482;2023-08-17T15:07:13;2.93;;;2.73;;
4980;SDS011;2507;50.392;7.482;2023-08-17T15:09:38;2.87;;;2.57;;
4980;SDS011;2507;50.392;7.482;2023-08-17T15:12:04;2.90;;;2.70;;
4980;SDS011;2507;50.392;7.482;2023-08-17T15:14:30;2.60;;;2.50;;
4980;SDS011;2507;50.392;7.482;2023-08-17T15:16:55;2.53;;;2.33;;
4980;SDS011;2507;50.392;7.482;2023-08-17T15:19:20;2.63;;;2.53;;
4980;SDS011;2507;50.392;7.482;2023-08-17T15:21:46;2.30;;;2.20;;